sensor_id;sensor_type;location;lat;lon;timestamp;temperature;humidity
21355;DHT22;10835;50.148;19.760;2024-03-22T00:02:19;25.70;37.80
21355;DHT22;10835;50.148;19.760;2024-03-22T00:04:45;25.70;38.30
21355;DHT22;10835;50.148;19.760;2024-03-22T00:07:13;25.70;37.90
21355;DHT22;10835;50.148;19.760;2024-03-22T00:09:39;25.60;37.90
21355;DHT22;10835;50.148;19.760;2024-03-22T00:12:07;25.30;38.00
21355;DHT22;10835;50.148;19.760;2024-03-22T00:14:33;25.10;38.70
21355;DHT22;10835;50.148;19.760;2024-03-22T00:17:01;25.10;38.50
21355;DHT22;10835;50.148;19.760;2024-03-22T00:19:29;25.10;39.00
21355;DHT22;10835;50.148;19.760;2024-03-22T00:21:56;25.10;39.00
21355;DHT22;10835;50.148;19.760;2024-03-22T00:24:23;24.90;38.30
21355;DHT22;10835;50.148;19.760;2024-03-22T00:26:50;24.10;38.80
21355;DHT22;10835;50.148;19.760;2024-03-22T00:29:17;23.00;39.80
21355;DHT22;10835;50.148;19.760;2024-03-22T00:31:44;22.40;40.80
21355;DHT22;10835;50.148;19.760;2024-03-22T00:34:11;21.50;42.00
21355;DHT22;10835;50.148;19.760;2024-03-22T00:36:40;20.60;43.70
21355;DHT22;10835;50.148;19.760;2024-03-22T00:39:06;19.90;45.10
21355;DHT22;10835;50.148;19.760;2024-03-22T00:41:34;19.20;46.40
21355;DHT22;10835;50.148;19.760;2024-03-22T00:44:00;19.10;46.80
21355;DHT22;10835;50.148;19.760;2024-03-22T00:46:27;18.80;47.40
21355;DHT22;10835;50.148;19.760;2024-03-22T00:48:54;19.90;47.20
21355;DHT22;10835;50.148;19.760;2024-03-22T00:51:21;20.50;46.40
21355;DHT22;10835;50.148;19.760;2024-03-22T00:53:49;20.90;45.50
21355;DHT22;10835;50.148;19.760;2024-03-22T00:56:17;21.00;45.20
21355;DHT22;10835;50.148;19.760;2024-03-22T00:58:43;21.40;45.50
21355;DHT22;10835;50.148;19.760;2024-03-22T01:01:11;20.40;46.00
21355;DHT22;10835;50.148;19.760;2024-03-22T01:03:39;19.80;46.70
21355;DHT22;10835;50.148;19.760;2024-03-22T01:06:05;19.50;47.70
21355;DHT22;10835;50.148;19.760;2024-03-22T01:08:33;19.60;48.00
21355;DHT22;10835;50.148;19.760;2024-03-22T01:11:01;19.90;47.80
21355;DHT22;10835;50.148;19.760;2024-03-22T01:13:28;19.90;47.90
21355;DHT22;10835;50.148;19.760;2024-03-22T01:15:55;19.60;48.00
21355;DHT22;10835;50.148;19.760;2024-03-22T01:18:23;19.40;48.60
21355;DHT22;10835;50.148;19.760;2024-03-22T01:20:49;19.20;49.20
21355;DHT22;10835;50.148;19.760;2024-03-22T01:23:17;19.10;49.50
21355;DHT22;10835;50.148;19.760;2024-03-22T01:25:45;19.20;50.00
21355;DHT22;10835;50.148;19.760;2024-03-22T01:28:14;18.70;50.30
21355;DHT22;10835;50.148;19.760;2024-03-22T01:30:42;18.60;50.80
21355;DHT22;10835;50.148;19.760;2024-03-22T01:33:10;18.40;51.10
21355;DHT22;10835;50.148;19.760;2024-03-22T01:35:36;18.20;51.60
21355;DHT22;10835;50.148;19.760;2024-03-22T01:38:04;18.00;52.10
21355;DHT22;10835;50.148;19.760;2024-03-22T01:40:30;17.90;52.30
21355;DHT22;10835;50.148;19.760;2024-03-22T01:42:59;17.90;52.60
21355;DHT22;10835;50.148;19.760;2024-03-22T01:45:32;17.80;52.70
21355;DHT22;10835;50.148;19.760;2024-03-22T01:48:00;18.30;52.90
21355;DHT22;10835;50.148;19.760;2024-03-22T01:50:28;18.30;52.70
21355;DHT22;10835;50.148;19.760;2024-03-22T01:52:56;18.20;52.80
21355;DHT22;10835;50.148;19.760;2024-03-22T01:55:23;18.60;52.80
21355;DHT22;10835;50.148;19.760;2024-03-22T01:57:52;18.70;52.20
21355;DHT22;10835;50.148;19.760;2024-03-22T02:00:21;18.60;52.20
21355;DHT22;10835;50.148;19.760;2024-03-22T02:02:50;18.80;52.30
21355;DHT22;10835;50.148;19.760;2024-03-22T02:05:17;18.70;52.20
21355;DHT22;10835;50.148;19.760;2024-03-22T02:07:46;18.90;52.00
21355;DHT22;10835;50.148;19.760;2024-03-22T02:10:13;18.90;52.10
21355;DHT22;10835;50.148;19.760;2024-03-22T02:12:42;18.80;53.20
21355;DHT22;10835;50.148;19.760;2024-03-22T02:15:09;18.80;53.80
21355;DHT22;10835;50.148;19.760;2024-03-22T02:17:37;19.10;53.40
21355;DHT22;10835;50.148;19.760;2024-03-22T02:20:06;19.10;53.00
21355;DHT22;10835;50.148;19.760;2024-03-22T02:22:34;19.10;52.80
21355;DHT22;10835;50.148;19.760;2024-03-22T02:25:02;19.00;53.20
21355;DHT22;10835;50.148;19.760;2024-03-22T02:27:30;19.20;53.10
21355;DHT22;10835;50.148;19.760;2024-03-22T02:29:56;19.30;53.00
21355;DHT22;10835;50.148;19.760;2024-03-22T02:32:24;19.40;53.00
21355;DHT22;10835;50.148;19.760;2024-03-22T02:34:50;19.40;53.00
21355;DHT22;10835;50.148;19.760;2024-03-22T02:37:17;19.40;53.10
21355;DHT22;10835;50.148;19.760;2024-03-22T02:39:44;19.20;53.40
21355;DHT22;10835;50.148;19.760;2024-03-22T02:42:13;19.10;53.70
21355;DHT22;10835;50.148;19.760;2024-03-22T02:44:39;19.20;53.50
21355;DHT22;10835;50.148;19.760;2024-03-22T02:47:09;19.20;53.50
21355;DHT22;10835;50.148;19.760;2024-03-22T02:49:35;19.20;53.60
21355;DHT22;10835;50.148;19.760;2024-03-22T02:52:03;19.10;53.80
21355;DHT22;10835;50.148;19.760;2024-03-22T02:54:30;19.10;53.80
21355;DHT22;10835;50.148;19.760;2024-03-22T02:56:57;19.20;54.10
21355;DHT22;10835;50.148;19.760;2024-03-22T02:59:27;19.30;53.60
21355;DHT22;10835;50.148;19.760;2024-03-22T03:01:55;19.50;53.50
21355;DHT22;10835;50.148;19.760;2024-03-22T03:04:21;19.30;53.70
21355;DHT22;10835;50.148;19.760;2024-03-22T03:06:49;19.40;53.80
21355;DHT22;10835;50.148;19.760;2024-03-22T03:09:15;19.60;53.90
21355;DHT22;10835;50.148;19.760;2024-03-22T03:11:43;20.00;53.30
21355;DHT22;10835;50.148;19.760;2024-03-22T03:14:09;20.60;53.10
21355;DHT22;10835;50.148;19.760;2024-03-22T03:16:38;21.60;51.90
21355;DHT22;10835;50.148;19.760;2024-03-22T03:19:05;22.00;51.30
21355;DHT22;10835;50.148;19.760;2024-03-22T03:21:32;21.90;50.90
21355;DHT22;10835;50.148;19.760;2024-03-22T03:23:59;22.20;50.90
21355;DHT22;10835;50.148;19.760;2024-03-22T03:26:27;21.80;50.80
21355;DHT22;10835;50.148;19.760;2024-03-22T03:28:53;21.80;51.00
21355;DHT22;10835;50.148;19.760;2024-03-22T03:31:22;22.10;51.50
21355;DHT22;10835;50.148;19.760;2024-03-22T03:33:50;22.40;51.20
21355;DHT22;10835;50.148;19.760;2024-03-22T03:36:17;22.20;51.10
21355;DHT22;10835;50.148;19.760;2024-03-22T03:38:44;22.30;51.30
21355;DHT22;10835;50.148;19.760;2024-03-22T03:41:11;21.90;51.90
21355;DHT22;10835;50.148;19.760;2024-03-22T03:43:38;21.50;52.00
21355;DHT22;10835;50.148;19.760;2024-03-22T03:46:05;21.30;52.60
21355;DHT22;10835;50.148;19.760;2024-03-22T03:48:32;21.40;53.10
21355;DHT22;10835;50.148;19.760;2024-03-22T03:51:00;21.80;52.70
21355;DHT22;10835;50.148;19.760;2024-03-22T03:53:29;21.60;52.40
21355;DHT22;10835;50.148;19.760;2024-03-22T03:55:56;21.70;52.40
21355;DHT22;10835;50.148;19.760;2024-03-22T03:58:23;22.10;51.80
21355;DHT22;10835;50.148;19.760;2024-03-22T04:00:50;22.00;51.80
21355;DHT22;10835;50.148;19.760;2024-03-22T04:03:17;21.80;51.80
21355;DHT22;10835;50.148;19.760;2024-03-22T04:05:45;22.10;51.80
21355;DHT22;10835;50.148;19.760;2024-03-22T04:08:13;22.50;51.10
21355;DHT22;10835;50.148;19.760;2024-03-22T04:10:40;22.40;50.70
21355;DHT22;10835;50.148;19.760;2024-03-22T04:13:08;22.30;50.60
21355;DHT22;10835;50.148;19.760;2024-03-22T04:15:35;22.30;50.30
21355;DHT22;10835;50.148;19.760;2024-03-22T04:18:02;22.30;50.10
21355;DHT22;10835;50.148;19.760;2024-03-22T04:20:29;22.20;49.90
21355;DHT22;10835;50.148;19.760;2024-03-22T04:22:57;22.00;49.80
21355;DHT22;10835;50.148;19.760;2024-03-22T04:25:25;21.50;50.50
21355;DHT22;10835;50.148;19.760;2024-03-22T04:27:52;21.30;51.10
21355;DHT22;10835;50.148;19.760;2024-03-22T04:30:20;21.10;51.60
21355;DHT22;10835;50.148;19.760;2024-03-22T04:32:46;20.90;52.30
21355;DHT22;10835;50.148;19.760;2024-03-22T04:35:14;20.50;52.90
21355;DHT22;10835;50.148;19.760;2024-03-22T04:37:40;20.40;53.30
21355;DHT22;10835;50.148;19.760;2024-03-22T04:40:09;20.10;54.00
21355;DHT22;10835;50.148;19.760;2024-03-22T04:42:38;20.20;54.60
21355;DHT22;10835;50.148;19.760;2024-03-22T04:45:06;20.40;54.30
21355;DHT22;10835;50.148;19.760;2024-03-22T04:47:34;20.40;53.80
21355;DHT22;10835;50.148;19.760;2024-03-22T04:50:00;20.70;53.50
21355;DHT22;10835;50.148;19.760;2024-03-22T04:52:28;20.60;53.40
21355;DHT22;10835;50.148;19.760;2024-03-22T04:54:54;21.00;53.10
21355;DHT22;10835;50.148;19.760;2024-03-22T04:57:22;20.30;53.80
21355;DHT22;10835;50.148;19.760;2024-03-22T04:59:50;20.00;55.10
21355;DHT22;10835;50.148;19.760;2024-03-22T05:02:17;19.70;55.40
21355;DHT22;10835;50.148;19.760;2024-03-22T05:04:44;19.60;55.90
21355;DHT22;10835;50.148;19.760;2024-03-22T05:07:11;19.70;56.10
21355;DHT22;10835;50.148;19.760;2024-03-22T05:09:37;19.60;56.40
21355;DHT22;10835;50.148;19.760;2024-03-22T05:12:05;19.70;56.50
21355;DHT22;10835;50.148;19.760;2024-03-22T05:14:31;20.00;56.10
21355;DHT22;10835;50.148;19.760;2024-03-22T05:17:00;19.90;56.00
21355;DHT22;10835;50.148;19.760;2024-03-22T05:19:26;20.00;56.00
21355;DHT22;10835;50.148;19.760;2024-03-22T05:21:54;20.10;56.20
21355;DHT22;10835;50.148;19.760;2024-03-22T05:24:20;20.70;55.40
21355;DHT22;10835;50.148;19.760;2024-03-22T05:26:48;20.70;55.10
21355;DHT22;10835;50.148;19.760;2024-03-22T05:29:14;21.10;54.80
21355;DHT22;10835;50.148;19.760;2024-03-22T05:31:47;21.20;54.40
21355;DHT22;10835;50.148;19.760;2024-03-22T05:34:15;20.50;55.10
21355;DHT22;10835;50.148;19.760;2024-03-22T05:36:42;20.50;55.50
21355;DHT22;10835;50.148;19.760;2024-03-22T05:39:09;20.60;55.60
21355;DHT22;10835;50.148;19.760;2024-03-22T05:41:38;20.80;55.30
21355;DHT22;10835;50.148;19.760;2024-03-22T05:44:05;21.00;54.90
21355;DHT22;10835;50.148;19.760;2024-03-22T05:46:32;21.20;54.50
21355;DHT22;10835;50.148;19.760;2024-03-22T05:48:59;21.20;54.50
21355;DHT22;10835;50.148;19.760;2024-03-22T05:51:28;21.10;54.70
21355;DHT22;10835;50.148;19.760;2024-03-22T05:53:56;21.20;55.00
21355;DHT22;10835;50.148;19.760;2024-03-22T05:56:23;21.50;54.60
21355;DHT22;10835;50.148;19.760;2024-03-22T05:58:50;21.80;54.00
21355;DHT22;10835;50.148;19.760;2024-03-22T06:01:17;22.20;53.40
21355;DHT22;10835;50.148;19.760;2024-03-22T06:03:44;22.20;52.60
21355;DHT22;10835;50.148;19.760;2024-03-22T06:06:11;21.70;53.50
21355;DHT22;10835;50.148;19.760;2024-03-22T06:08:39;21.80;54.00
21355;DHT22;10835;50.148;19.760;2024-03-22T06:11:09;22.20;53.30
21355;DHT22;10835;50.148;19.760;2024-03-22T06:13:36;22.00;53.20
21355;DHT22;10835;50.148;19.760;2024-03-22T06:16:04;22.10;53.50
21355;DHT22;10835;50.148;19.760;2024-03-22T06:18:30;22.10;54.00
21355;DHT22;10835;50.148;19.760;2024-03-22T06:20:58;21.90;53.20
21355;DHT22;10835;50.148;19.760;2024-03-22T06:23:24;21.60;54.00
21355;DHT22;10835;50.148;19.760;2024-03-22T06:25:55;21.90;53.90
21355;DHT22;10835;50.148;19.760;2024-03-22T06:28:22;22.00;53.20
21355;DHT22;10835;50.148;19.760;2024-03-22T06:30:50;21.90;53.80
21355;DHT22;10835;50.148;19.760;2024-03-22T06:33:16;22.00;53.50
21355;DHT22;10835;50.148;19.760;2024-03-22T06:35:44;22.30;53.00
21355;DHT22;10835;50.148;19.760;2024-03-22T06:38:10;22.20;53.00
21355;DHT22;10835;50.148;19.760;2024-03-22T06:40:38;21.90;53.60
21355;DHT22;10835;50.148;19.760;2024-03-22T06:43:06;21.80;53.50
21355;DHT22;10835;50.148;19.760;2024-03-22T06:45:35;21.60;54.30
21355;DHT22;10835;50.148;19.760;2024-03-22T06:48:01;21.90;54.20
21355;DHT22;10835;50.148;19.760;2024-03-22T06:50:29;22.10;53.70
21355;DHT22;10835;50.148;19.760;2024-03-22T06:52:55;22.40;53.40
21355;DHT22;10835;50.148;19.760;2024-03-22T06:55:23;22.20;53.50
21355;DHT22;10835;50.148;19.760;2024-03-22T06:57:50;22.10;53.50
21355;DHT22;10835;50.148;19.760;2024-03-22T07:00:20;21.80;53.60
21355;DHT22;10835;50.148;19.760;2024-03-22T07:02:46;21.90;54.10
21355;DHT22;10835;50.148;19.760;2024-03-22T07:05:14;22.40;53.40
21355;DHT22;10835;50.148;19.760;2024-03-22T07:07:40;21.90;53.20
21355;DHT22;10835;50.148;19.760;2024-03-22T07:10:08;21.80;53.80
21355;DHT22;10835;50.148;19.760;2024-03-22T07:12:35;21.70;53.70
21355;DHT22;10835;50.148;19.760;2024-03-22T07:15:03;21.80;53.60
21355;DHT22;10835;50.148;19.760;2024-03-22T07:17:32;22.00;53.50
21355;DHT22;10835;50.148;19.760;2024-03-22T07:20:00;21.70;53.50
21355;DHT22;10835;50.148;19.760;2024-03-22T07:22:26;21.60;53.80
21355;DHT22;10835;50.148;19.760;2024-03-22T07:24:54;21.30;54.20
21355;DHT22;10835;50.148;19.760;2024-03-22T07:27:21;21.70;54.10
21355;DHT22;10835;50.148;19.760;2024-03-22T07:29:49;21.80;53.60
21355;DHT22;10835;50.148;19.760;2024-03-22T07:32:15;22.00;53.50
21355;DHT22;10835;50.148;19.760;2024-03-22T07:34:47;21.80;53.50
21355;DHT22;10835;50.148;19.760;2024-03-22T07:37:13;22.00;53.20
21355;DHT22;10835;50.148;19.760;2024-03-22T07:39:41;21.90;53.10
21355;DHT22;10835;50.148;19.760;2024-03-22T07:42:07;22.50;52.90
21355;DHT22;10835;50.148;19.760;2024-03-22T07:44:35;22.40;52.50
21355;DHT22;10835;50.148;19.760;2024-03-22T07:47:01;22.60;52.50
21355;DHT22;10835;50.148;19.760;2024-03-22T07:49:29;22.70;51.80
21355;DHT22;10835;50.148;19.760;2024-03-22T07:51:57;22.70;51.50
21355;DHT22;10835;50.148;19.760;2024-03-22T07:54:24;22.60;51.90
21355;DHT22;10835;50.148;19.760;2024-03-22T07:56:51;22.80;51.90
21355;DHT22;10835;50.148;19.760;2024-03-22T07:59:18;22.90;51.00
21355;DHT22;10835;50.148;19.760;2024-03-22T08:01:45;22.80;51.20
21355;DHT22;10835;50.148;19.760;2024-03-22T08:04:13;22.80;51.10
21355;DHT22;10835;50.148;19.760;2024-03-22T08:06:40;22.80;50.90
21355;DHT22;10835;50.148;19.760;2024-03-22T08:09:09;22.80;51.60
21355;DHT22;10835;50.148;19.760;2024-03-22T08:11:35;22.70;51.00
21355;DHT22;10835;50.148;19.760;2024-03-22T08:14:03;22.50;51.50
21355;DHT22;10835;50.148;19.760;2024-03-22T08:16:30;22.20;51.60
21355;DHT22;10835;50.148;19.760;2024-03-22T08:18:58;22.10;52.40
21355;DHT22;10835;50.148;19.760;2024-03-22T08:21:24;21.90;52.50
21355;DHT22;10835;50.148;19.760;2024-03-22T08:23:52;21.80;52.50
21355;DHT22;10835;50.148;19.760;2024-03-22T08:26:20;21.70;52.40
21355;DHT22;10835;50.148;19.760;2024-03-22T08:28:48;21.80;52.30
21355;DHT22;10835;50.148;19.760;2024-03-22T08:31:15;21.70;51.30
21355;DHT22;10835;50.148;19.760;2024-03-22T08:33:43;21.70;51.60
21355;DHT22;10835;50.148;19.760;2024-03-22T08:36:09;21.60;51.20
21355;DHT22;10835;50.148;19.760;2024-03-22T08:38:37;21.30;52.00
21355;DHT22;10835;50.148;19.760;2024-03-22T08:41:03;21.20;52.50
21355;DHT22;10835;50.148;19.760;2024-03-22T08:43:32;21.30;52.50
21355;DHT22;10835;50.148;19.760;2024-03-22T08:45:59;21.50;52.40
21355;DHT22;10835;50.148;19.760;2024-03-22T08:48:26;21.10;52.60
21355;DHT22;10835;50.148;19.760;2024-03-22T08:50:53;21.60;52.60
21355;DHT22;10835;50.148;19.760;2024-03-22T08:53:20;22.00;51.60
21355;DHT22;10835;50.148;19.760;2024-03-22T08:55:47;21.90;51.20
21355;DHT22;10835;50.148;19.760;2024-03-22T08:58:15;21.40;52.20
21355;DHT22;10835;50.148;19.760;2024-03-22T09:00:43;21.40;52.60
21355;DHT22;10835;50.148;19.760;2024-03-22T09:03:10;21.50;52.40
21355;DHT22;10835;50.148;19.760;2024-03-22T09:05:37;22.30;51.40
21355;DHT22;10835;50.148;19.760;2024-03-22T09:08:05;22.20;50.90
21355;DHT22;10835;50.148;19.760;2024-03-22T09:10:32;22.10;51.20
21355;DHT22;10835;50.148;19.760;2024-03-22T09:13:00;21.90;50.90
21355;DHT22;10835;50.148;19.760;2024-03-22T09:15:26;21.70;51.10
21355;DHT22;10835;50.148;19.760;2024-03-22T09:17:55;21.80;50.90
21355;DHT22;10835;50.148;19.760;2024-03-22T09:20:21;21.70;50.90
21355;DHT22;10835;50.148;19.760;2024-03-22T09:22:49;21.50;51.20
21355;DHT22;10835;50.148;19.760;2024-03-22T09:25:16;21.60;50.70
21355;DHT22;10835;50.148;19.760;2024-03-22T09:27:44;21.70;51.00
21355;DHT22;10835;50.148;19.760;2024-03-22T09:30:11;22.10;50.00
21355;DHT22;10835;50.148;19.760;2024-03-22T09:32:39;22.10;49.50
21355;DHT22;10835;50.148;19.760;2024-03-22T09:35:08;21.60;49.80
21355;DHT22;10835;50.148;19.760;2024-03-22T09:37:36;20.80;50.10
21355;DHT22;10835;50.148;19.760;2024-03-22T09:40:03;20.50;50.60
21355;DHT22;10835;50.148;19.760;2024-03-22T09:42:33;20.10;50.90
21355;DHT22;10835;50.148;19.760;2024-03-22T09:45:08;19.60;52.30
21355;DHT22;10835;50.148;19.760;2024-03-22T09:47:37;20.00;52.10
21355;DHT22;10835;50.148;19.760;2024-03-22T09:50:06;20.00;52.00
21355;DHT22;10835;50.148;19.760;2024-03-22T09:52:35;20.00;52.20
21355;DHT22;10835;50.148;19.760;2024-03-22T09:55:05;20.30;52.30
21355;DHT22;10835;50.148;19.760;2024-03-22T09:57:35;20.80;51.20
21355;DHT22;10835;50.148;19.760;2024-03-22T10:00:06;21.20;50.00
21355;DHT22;10835;50.148;19.760;2024-03-22T10:02:41;20.80;50.60
21355;DHT22;10835;50.148;19.760;2024-03-22T10:05:10;21.00;50.60
21355;DHT22;10835;50.148;19.760;2024-03-22T10:07:39;20.80;50.80
21355;DHT22;10835;50.148;19.760;2024-03-22T10:10:07;20.60;51.10
21355;DHT22;10835;50.148;19.760;2024-03-22T10:12:34;20.60;51.50
21355;DHT22;10835;50.148;19.760;2024-03-22T10:15:01;20.70;51.30
21355;DHT22;10835;50.148;19.760;2024-03-22T10:17:29;20.80;50.90
21355;DHT22;10835;50.148;19.760;2024-03-22T10:19:56;20.70;51.40
21355;DHT22;10835;50.148;19.760;2024-03-22T10:22:23;20.80;51.40
21355;DHT22;10835;50.148;19.760;2024-03-22T10:24:52;20.70;51.60
21355;DHT22;10835;50.148;19.760;2024-03-22T10:27:19;20.60;51.60
21355;DHT22;10835;50.148;19.760;2024-03-22T10:29:47;20.40;52.00
21355;DHT22;10835;50.148;19.760;2024-03-22T10:32:16;20.10;52.60
21355;DHT22;10835;50.148;19.760;2024-03-22T10:34:44;20.10;53.20
21355;DHT22;10835;50.148;19.760;2024-03-22T10:37:13;20.00;53.40
21355;DHT22;10835;50.148;19.760;2024-03-22T10:39:42;20.30;53.00
21355;DHT22;10835;50.148;19.760;2024-03-22T10:42:11;20.50;53.00
21355;DHT22;10835;50.148;19.760;2024-03-22T10:44:41;21.00;53.10
21355;DHT22;10835;50.148;19.760;2024-03-22T10:47:09;21.40;51.10
21355;DHT22;10835;50.148;19.760;2024-03-22T10:49:38;21.30;51.20
21355;DHT22;10835;50.148;19.760;2024-03-22T10:52:07;20.80;51.50
21355;DHT22;10835;50.148;19.760;2024-03-22T10:54:40;20.50;52.00
21355;DHT22;10835;50.148;19.760;2024-03-22T10:57:10;20.90;52.00
21355;DHT22;10835;50.148;19.760;2024-03-22T10:59:41;20.70;52.00
21355;DHT22;10835;50.148;19.760;2024-03-22T11:02:10;21.10;52.10
21355;DHT22;10835;50.148;19.760;2024-03-22T11:04:38;21.10;51.50
21355;DHT22;10835;50.148;19.760;2024-03-22T11:07:05;21.00;51.40
21355;DHT22;10835;50.148;19.760;2024-03-22T11:09:33;21.20;51.30
21355;DHT22;10835;50.148;19.760;2024-03-22T11:11:59;21.50;51.20
21355;DHT22;10835;50.148;19.760;2024-03-22T11:14:27;21.50;50.60
21355;DHT22;10835;50.148;19.760;2024-03-22T11:16:56;21.80;50.50
21355;DHT22;10835;50.148;19.760;2024-03-22T11:19:23;21.70;50.00
21355;DHT22;10835;50.148;19.760;2024-03-22T11:21:49;21.90;50.20
21355;DHT22;10835;50.148;19.760;2024-03-22T11:24:17;21.60;49.90
21355;DHT22;10835;50.148;19.760;2024-03-22T11:26:43;21.60;50.80
21355;DHT22;10835;50.148;19.760;2024-03-22T11:29:11;21.70;50.20
21355;DHT22;10835;50.148;19.760;2024-03-22T11:31:38;21.90;50.40
21355;DHT22;10835;50.148;19.760;2024-03-22T11:34:06;21.90;50.40
21355;DHT22;10835;50.148;19.760;2024-03-22T11:36:35;21.80;50.10
21355;DHT22;10835;50.148;19.760;2024-03-22T11:39:02;22.00;50.00
21355;DHT22;10835;50.148;19.760;2024-03-22T11:41:31;22.00;49.60
21355;DHT22;10835;50.148;19.760;2024-03-22T11:43:59;22.30;49.40
21355;DHT22;10835;50.148;19.760;2024-03-22T11:46:27;22.50;48.70
21355;DHT22;10835;50.148;19.760;2024-03-22T11:48:56;23.00;48.30
21355;DHT22;10835;50.148;19.760;2024-03-22T11:51:25;23.00;48.30
21355;DHT22;10835;50.148;19.760;2024-03-22T11:53:53;22.80;48.00
21355;DHT22;10835;50.148;19.760;2024-03-22T11:56:25;23.00;48.00
21355;DHT22;10835;50.148;19.760;2024-03-22T11:58:58;22.70;47.50
21355;DHT22;10835;50.148;19.760;2024-03-22T12:01:25;22.60;48.40
21355;DHT22;10835;50.148;19.760;2024-03-22T12:03:54;22.70;48.50
21355;DHT22;10835;50.148;19.760;2024-03-22T12:06:21;22.80;49.40
21355;DHT22;10835;50.148;19.760;2024-03-22T12:08:50;22.90;48.80
21355;DHT22;10835;50.148;19.760;2024-03-22T12:11:16;22.80;47.90
21355;DHT22;10835;50.148;19.760;2024-03-22T12:13:45;23.20;47.90
21355;DHT22;10835;50.148;19.760;2024-03-22T12:16:11;23.30;47.50
21355;DHT22;10835;50.148;19.760;2024-03-22T12:18:39;23.00;46.80
21355;DHT22;10835;50.148;19.760;2024-03-22T12:21:05;22.70;47.50
21355;DHT22;10835;50.148;19.760;2024-03-22T12:23:34;22.80;49.00
21355;DHT22;10835;50.148;19.760;2024-03-22T12:26:03;23.60;48.10
21355;DHT22;10835;50.148;19.760;2024-03-22T12:28:31;23.80;46.60
21355;DHT22;10835;50.148;19.760;2024-03-22T12:30:58;23.60;46.10
21355;DHT22;10835;50.148;19.760;2024-03-22T12:33:25;23.20;46.20
21355;DHT22;10835;50.148;19.760;2024-03-22T12:35:52;22.60;47.40
21355;DHT22;10835;50.148;19.760;2024-03-22T12:38:19;22.40;48.50
21355;DHT22;10835;50.148;19.760;2024-03-22T12:40:46;21.90;48.50
21355;DHT22;10835;50.148;19.760;2024-03-22T12:43:15;21.70;49.00
21355;DHT22;10835;50.148;19.760;2024-03-22T12:45:43;21.40;49.30
21355;DHT22;10835;50.148;19.760;2024-03-22T12:48:10;21.80;49.80
21355;DHT22;10835;50.148;19.760;2024-03-22T12:50:37;21.60;50.20
21355;DHT22;10835;50.148;19.760;2024-03-22T12:53:05;21.60;50.10
21355;DHT22;10835;50.148;19.760;2024-03-22T12:55:33;21.50;49.60
21355;DHT22;10835;50.148;19.760;2024-03-22T12:57:59;21.50;49.80
21355;DHT22;10835;50.148;19.760;2024-03-22T13:00:28;21.70;49.30
21355;DHT22;10835;50.148;19.760;2024-03-22T13:02:55;22.10;49.00
21355;DHT22;10835;50.148;19.760;2024-03-22T13:05:23;21.90;49.10
21355;DHT22;10835;50.148;19.760;2024-03-22T13:07:49;21.80;49.60
21355;DHT22;10835;50.148;19.760;2024-03-22T13:10:17;21.90;49.50
21355;DHT22;10835;50.148;19.760;2024-03-22T13:12:43;21.90;49.50
21355;DHT22;10835;50.148;19.760;2024-03-22T13:15:12;21.80;49.30
21355;DHT22;10835;50.148;19.760;2024-03-22T13:17:39;21.90;48.70
21355;DHT22;10835;50.148;19.760;2024-03-22T13:20:08;21.60;49.10
21355;DHT22;10835;50.148;19.760;2024-03-22T13:22:37;21.70;48.90
21355;DHT22;10835;50.148;19.760;2024-03-22T13:25:05;21.40;49.00
21355;DHT22;10835;50.148;19.760;2024-03-22T13:27:33;21.40;49.30
21355;DHT22;10835;50.148;19.760;2024-03-22T13:30:01;21.20;49.60
21355;DHT22;10835;50.148;19.760;2024-03-22T13:32:27;21.00;49.50
21355;DHT22;10835;50.148;19.760;2024-03-22T13:34:56;21.10;49.30
21355;DHT22;10835;50.148;19.760;2024-03-22T13:37:23;20.80;49.70
21355;DHT22;10835;50.148;19.760;2024-03-22T13:39:50;20.60;50.10
21355;DHT22;10835;50.148;19.760;2024-03-22T13:42:17;20.80;50.60
21355;DHT22;10835;50.148;19.760;2024-03-22T13:44:46;21.00;50.40
21355;DHT22;10835;50.148;19.760;2024-03-22T13:47:12;21.60;50.60
21355;DHT22;10835;50.148;19.760;2024-03-22T13:49:40;21.80;48.80
21355;DHT22;10835;50.148;19.760;2024-03-22T13:52:09;21.90;48.40
21355;DHT22;10835;50.148;19.760;2024-03-22T13:54:36;21.70;48.80
21355;DHT22;10835;50.148;19.760;2024-03-22T13:57:03;21.60;49.00
21355;DHT22;10835;50.148;19.760;2024-03-22T13:59:31;21.80;48.50
21355;DHT22;10835;50.148;19.760;2024-03-22T14:01:57;21.70;48.60
21355;DHT22;10835;50.148;19.760;2024-03-22T14:04:25;21.60;49.00
21355;DHT22;10835;50.148;19.760;2024-03-22T14:06:52;21.30;48.90
21355;DHT22;10835;50.148;19.760;2024-03-22T14:09:21;21.00;50.00
21355;DHT22;10835;50.148;19.760;2024-03-22T14:11:48;21.10;49.50
21355;DHT22;10835;50.148;19.760;2024-03-22T14:14:15;21.10;49.90
21355;DHT22;10835;50.148;19.760;2024-03-22T14:16:42;21.60;49.30
21355;DHT22;10835;50.148;19.760;2024-03-22T14:19:09;22.00;48.80
21355;DHT22;10835;50.148;19.760;2024-03-22T14:21:36;22.20;48.40
21355;DHT22;10835;50.148;19.760;2024-03-22T14:24:05;22.00;48.10
21355;DHT22;10835;50.148;19.760;2024-03-22T14:26:32;21.60;48.70
21355;DHT22;10835;50.148;19.760;2024-03-22T14:29:00;21.60;49.30
21355;DHT22;10835;50.148;19.760;2024-03-22T14:31:27;21.90;48.80
21355;DHT22;10835;50.148;19.760;2024-03-22T14:33:55;21.90;48.60
21355;DHT22;10835;50.148;19.760;2024-03-22T14:36:22;21.70;48.90
21355;DHT22;10835;50.148;19.760;2024-03-22T14:38:50;22.30;48.30
21355;DHT22;10835;50.148;19.760;2024-03-22T14:41:16;22.80;47.50
21355;DHT22;10835;50.148;19.760;2024-03-22T14:43:46;22.80;47.50
21355;DHT22;10835;50.148;19.760;2024-03-22T14:46:12;22.70;47.10
21355;DHT22;10835;50.148;19.760;2024-03-22T14:48:39;22.50;47.20
21355;DHT22;10835;50.148;19.760;2024-03-22T14:51:06;22.70;46.90
21355;DHT22;10835;50.148;19.760;2024-03-22T14:53:35;22.60;46.40
21355;DHT22;10835;50.148;19.760;2024-03-22T14:56:03;22.40;46.50
21355;DHT22;10835;50.148;19.760;2024-03-22T14:58:30;22.30;47.30
21355;DHT22;10835;50.148;19.760;2024-03-22T15:01:01;22.60;46.90
21355;DHT22;10835;50.148;19.760;2024-03-22T15:03:29;22.30;47.20
21355;DHT22;10835;50.148;19.760;2024-03-22T15:05:56;22.00;47.40
21355;DHT22;10835;50.148;19.760;2024-03-22T15:08:26;21.80;47.90
21355;DHT22;10835;50.148;19.760;2024-03-22T15:10:57;21.90;47.80
21355;DHT22;10835;50.148;19.760;2024-03-22T15:13:24;21.60;48.10
21355;DHT22;10835;50.148;19.760;2024-03-22T15:15:54;21.60;48.00
21355;DHT22;10835;50.148;19.760;2024-03-22T15:18:23;21.90;47.50